• Join FlightAware (Why Join?)
  • Login
  • US Flag 
Gobble Gobble! 
06:38PM EST


 

Airport Tracker/Info


-or-


 

Live Flight TrackerFlight Track Log ✈ TAM3226 ✈ 14-Jun-2013 ✈ SBCF / CNF - SBUL / UDI

Flight Track Log - Related Links

Times and Time Zones

All times are in EDT time to prevent confusion due to time zone crossing. See the TAM3226 flight status page for this flight to view local times or setup timezone preferences in your user account.

Time Position Orientation Groundspeed Altitude Reporting Facility
EDT Latitude Longitude Course Direction KTS MPH feet Rate Location/Type
10:08PM -19.0911 -47.1028 280° West  Level Estimated
10:09PM -19.0753 -47.1895 281° West  Level Estimated
10:10PM -19.0594 -47.2763 281° West  Level Estimated
10:11PM -19.0435 -47.3630 281° West  Level Estimated
10:12PM -19.0276 -47.4497 281° West  Level Estimated
10:13PM -19.0116 -47.5364 281° West  Level Estimated
10:14PM -18.9955 -47.6231 281° West  Level Estimated
10:15PM -18.9794 -47.7097 281° West  Level Estimated
10:16PM -18.9633 -47.7964 281° West  Level Estimated
10:17PM -18.9472 -47.8830 281° West  Level Estimated
10:18PM -18.9310 -47.9696 281° West  Level Estimated
10:19PM -18.9147 -48.0562 281° West  Level Estimated
10:20PM -18.8985 -48.1427 281° West  Level Estimated
10:21PM -18.8828 -48.2256 281° West  Level Estimated
10:22PM -18.8828 -48.2256 223° Southwest  Level Estimated
10:23PM -18.8828 -48.2256 223° Southwest  Level Estimated
10:24PM -18.8828 -48.2256 223° Southwest  Level Estimated
10:25PM -18.8828 -48.2256 223° Southwest  Level Estimated
10:26PM -18.8828 -48.2256 223° Southwest  Level Estimated
10:27PM -18.8828 -48.2256 223° Southwest  Level Estimated
10:28PM -18.8828 -48.2256 223° Southwest  Level Estimated
10:29PM -18.8828 -48.2256 223° Southwest  Level Estimated
10:30PM -18.8828 -48.2256 223° Southwest  Level Estimated
10:31PM -18.8828 -48.2256 223° Southwest  Level Estimated
10:32PM -18.8828 -48.2256 223° Southwest  Level Estimated
10:33PM -18.8828 -48.2256 223° Southwest  Level Estimated
10:34PM -18.8828 -48.2256 223° Southwest  Level Estimated
10:35PM -18.8828 -48.2256 223° Southwest  Level Estimated
10:36PM -18.8828 -48.2256 223° Southwest  Level Estimated
10:37PM -18.8828 -48.2256 223° Southwest  Level Estimated